sensor_id;sensor_type;location;lat;lon;timestamp;P1;durP1;ratioP1;P2;durP2;ratioP2
26261;SDS011;13988;52.446;13.280;2023-11-21T00:00:00;0.47;;;0.47;;
26261;SDS011;13988;52.446;13.280;2023-11-21T00:02:26;1.17;;;0.60;;
26261;SDS011;13988;52.446;13.280;2023-11-21T00:04:52;0.60;;;0.60;;
26261;SDS011;13988;52.446;13.280;2023-11-21T00:07:17;0.68;;;0.65;;
26261;SDS011;13988;52.446;13.280;2023-11-21T00:09:43;1.83;;;1.00;;
26261;SDS011;13988;52.446;13.280;2023-11-21T00:12:09;2.47;;;1.60;;
26261;SDS011;13988;52.446;13.280;2023-11-21T00:14:35;2.40;;;1.75;;
26261;SDS011;13988;52.446;13.280;2023-11-21T00:17:04;1.60;;;1.50;;
26261;SDS011;13988;52.446;13.280;2023-11-21T00:19:30;4.03;;;2.20;;
26261;SDS011;13988;52.446;13.280;2023-11-21T00:21:56;4.13;;;2.58;;
26261;SDS011;13988;52.446;13.280;2023-11-21T00:24:23;3.22;;;2.05;;
26261;SDS011;13988;52.446;13.280;2023-11-21T00:26:49;4.40;;;1.92;;
26261;SDS011;13988;52.446;13.280;2023-11-21T00:29:15;4.30;;;3.25;;
26261;SDS011;13988;52.446;13.280;2023-11-21T00:31:42;6.45;;;3.53;;
26261;SDS011;13988;52.446;13.280;2023-11-21T00:34:09;5.97;;;3.78;;
26261;SDS011;13988;52.446;13.280;2023-11-21T00:36:34;9.82;;;4.05;;
26261;SDS011;13988;52.446;13.280;2023-11-21T00:39:00;7.38;;;4.50;;
26261;SDS011;13988;52.446;13.280;2023-11-21T00:41:27;6.45;;;4.30;;
26261;SDS011;13988;52.446;13.280;2023-11-21T00:43:52;8.10;;;4.30;;
26261;SDS011;13988;52.446;13.280;2023-11-21T00:46:19;8.73;;;5.00;;
26261;SDS011;13988;52.446;13.280;2023-11-21T00:48:45;11.57;;;4.72;;
26261;SDS011;13988;52.446;13.280;2023-11-21T00:51:10;8.57;;;4.53;;
26261;SDS011;13988;52.446;13.280;2023-11-21T00:53:36;9.82;;;5.05;;
26261;SDS011;13988;52.446;13.280;2023-11-21T00:56:01;15.07;;;6.57;;
26261;SDS011;13988;52.446;13.280;2023-11-21T00:58:27;11.15;;;6.32;;
26261;SDS011;13988;52.446;13.280;2023-11-21T01:00:53;22.35;;;8.05;;
26261;SDS011;13988;52.446;13.280;2023-11-21T01:03:19;12.65;;;6.72;;
26261;SDS011;13988;52.446;13.280;2023-11-21T01:05:45;12.95;;;7.10;;
26261;SDS011;13988;52.446;13.280;2023-11-21T01:08:11;11.95;;;7.72;;
26261;SDS011;13988;52.446;13.280;2023-11-21T01:10:37;16.05;;;7.72;;
26261;SDS011;13988;52.446;13.280;2023-11-21T01:13:02;19.02;;;7.57;;
26261;SDS011;13988;52.446;13.280;2023-11-21T01:15:32;21.25;;;9.63;;
26261;SDS011;13988;52.446;13.280;2023-11-21T01:17:58;22.13;;;7.75;;
26261;SDS011;13988;52.446;13.280;2023-11-21T01:20:25;17.63;;;7.13;;
26261;SDS011;13988;52.446;13.280;2023-11-21T01:22:51;25.48;;;9.20;;
26261;SDS011;13988;52.446;13.280;2023-11-21T01:25:18;21.17;;;8.88;;
26261;SDS011;13988;52.446;13.280;2023-11-21T01:27:46;26.35;;;9.85;;
26261;SDS011;13988;52.446;13.280;2023-11-21T01:30:11;29.05;;;10.73;;
26261;SDS011;13988;52.446;13.280;2023-11-21T01:32:37;21.70;;;9.25;;
26261;SDS011;13988;52.446;13.280;2023-11-21T01:35:04;17.95;;;7.00;;
26261;SDS011;13988;52.446;13.280;2023-11-21T01:37:31;20.15;;;8.68;;
26261;SDS011;13988;52.446;13.280;2023-11-21T01:39:58;29.67;;;9.05;;
26261;SDS011;13988;52.446;13.280;2023-11-21T01:42:24;29.27;;;9.23;;
26261;SDS011;13988;52.446;13.280;2023-11-21T01:44:50;26.48;;;9.23;;
26261;SDS011;13988;52.446;13.280;2023-11-21T01:47:15;23.33;;;8.13;;
26261;SDS011;13988;52.446;13.280;2023-11-21T01:49:45;24.75;;;10.20;;
26261;SDS011;13988;52.446;13.280;2023-11-21T01:52:11;25.98;;;10.32;;
26261;SDS011;13988;52.446;13.280;2023-11-21T01:54:38;32.53;;;10.95;;
26261;SDS011;13988;52.446;13.280;2023-11-21T01:57:04;29.30;;;10.73;;
26261;SDS011;13988;52.446;13.280;2023-11-21T01:59:35;29.08;;;10.80;;
26261;SDS011;13988;52.446;13.280;2023-11-21T02:02:02;30.05;;;10.07;;
26261;SDS011;13988;52.446;13.280;2023-11-21T02:04:30;30.55;;;8.85;;
26261;SDS011;13988;52.446;13.280;2023-11-21T02:06:59;25.45;;;8.68;;
26261;SDS011;13988;52.446;13.280;2023-11-21T02:09:26;29.05;;;9.18;;
26261;SDS011;13988;52.446;13.280;2023-11-21T02:11:52;19.65;;;7.95;;
26261;SDS011;13988;52.446;13.280;2023-11-21T02:14:19;25.25;;;7.55;;
26261;SDS011;13988;52.446;13.280;2023-11-21T02:16:47;21.55;;;9.60;;
26261;SDS011;13988;52.446;13.280;2023-11-21T02:19:14;26.20;;;9.25;;
26261;SDS011;13988;52.446;13.280;2023-11-21T02:21:53;20.98;;;7.78;;
26261;SDS011;13988;52.446;13.280;2023-11-21T02:24:20;25.55;;;8.40;;
26261;SDS011;13988;52.446;13.280;2023-11-21T02:26:46;20.90;;;8.90;;
26261;SDS011;13988;52.446;13.280;2023-11-21T02:29:12;16.00;;;7.85;;
26261;SDS011;13988;52.446;13.280;2023-11-21T02:31:38;22.80;;;7.60;;
26261;SDS011;13988;52.446;13.280;2023-11-21T02:34:13;18.95;;;6.88;;
26261;SDS011;13988;52.446;13.280;2023-11-21T02:36:45;20.48;;;7.53;;
26261;SDS011;13988;52.446;13.280;2023-11-21T02:39:12;22.23;;;6.93;;
26261;SDS011;13988;52.446;13.280;2023-11-21T02:41:38;17.50;;;6.78;;
26261;SDS011;13988;52.446;13.280;2023-11-21T02:44:04;14.95;;;5.68;;
26261;SDS011;13988;52.446;13.280;2023-11-21T02:46:31;15.43;;;6.28;;
26261;SDS011;13988;52.446;13.280;2023-11-21T02:48:59;13.00;;;5.93;;
26261;SDS011;13988;52.446;13.280;2023-11-21T02:51:25;12.50;;;6.55;;
26261;SDS011;13988;52.446;13.280;2023-11-21T02:53:51;7.95;;;4.07;;
26261;SDS011;13988;52.446;13.280;2023-11-21T02:56:17;10.50;;;4.35;;
26261;SDS011;13988;52.446;13.280;2023-11-21T02:58:43;11.85;;;5.07;;
26261;SDS011;13988;52.446;13.280;2023-11-21T03:01:09;13.98;;;5.72;;
26261;SDS011;13988;52.446;13.280;2023-11-21T03:03:36;12.63;;;4.70;;
26261;SDS011;13988;52.446;13.280;2023-11-21T03:06:05;10.77;;;4.30;;
26261;SDS011;13988;52.446;13.280;2023-11-21T03:08:31;8.93;;;5.40;;
26261;SDS011;13988;52.446;13.280;2023-11-21T03:10:57;14.55;;;4.45;;
26261;SDS011;13988;52.446;13.280;2023-11-21T03:13:23;9.88;;;4.43;;
26261;SDS011;13988;52.446;13.280;2023-11-21T03:15:49;8.73;;;4.18;;
26261;SDS011;13988;52.446;13.280;2023-11-21T03:18:15;11.48;;;4.60;;
26261;SDS011;13988;52.446;13.280;2023-11-21T03:20:41;7.88;;;4.13;;
26261;SDS011;13988;52.446;13.280;2023-11-21T03:23:11;8.63;;;5.05;;
26261;SDS011;13988;52.446;13.280;2023-11-21T03:25:37;9.50;;;4.50;;
26261;SDS011;13988;52.446;13.280;2023-11-21T03:28:02;12.07;;;5.75;;
26261;SDS011;13988;52.446;13.280;2023-11-21T03:30:28;11.50;;;5.15;;
26261;SDS011;13988;52.446;13.280;2023-11-21T03:32:54;9.80;;;6.07;;
26261;SDS011;13988;52.446;13.280;2023-11-21T03:35:20;10.85;;;5.03;;
26261;SDS011;13988;52.446;13.280;2023-11-21T03:37:46;7.43;;;4.72;;
26261;SDS011;13988;52.446;13.280;2023-11-21T03:40:12;9.50;;;4.63;;
26261;SDS011;13988;52.446;13.280;2023-11-21T03:42:38;8.70;;;4.50;;
26261;SDS011;13988;52.446;13.280;2023-11-21T03:45:05;8.30;;;4.35;;
26261;SDS011;13988;52.446;13.280;2023-11-21T03:47:31;4.97;;;3.03;;
26261;SDS011;13988;52.446;13.280;2023-11-21T03:49:57;7.93;;;4.65;;
26261;SDS011;13988;52.446;13.280;2023-11-21T03:52:23;7.97;;;4.97;;
26261;SDS011;13988;52.446;13.280;2023-11-21T03:54:49;10.38;;;4.70;;
26261;SDS011;13988;52.446;13.280;2023-11-21T03:57:15;10.13;;;5.15;;
26261;SDS011;13988;52.446;13.280;2023-11-21T03:59:41;7.57;;;3.78;;
26261;SDS011;13988;52.446;13.280;2023-11-21T04:02:07;14.60;;;5.78;;
26261;SDS011;13988;52.446;13.280;2023-11-21T04:04:33;12.98;;;6.78;;
26261;SDS011;13988;52.446;13.280;2023-11-21T04:06:59;11.90;;;6.15;;
26261;SDS011;13988;52.446;13.280;2023-11-21T04:09:25;12.23;;;5.05;;
26261;SDS011;13988;52.446;13.280;2023-11-21T04:11:51;8.93;;;5.28;;
26261;SDS011;13988;52.446;13.280;2023-11-21T04:14:17;6.78;;;4.65;;
26261;SDS011;13988;52.446;13.280;2023-11-21T04:16:43;7.90;;;4.57;;
26261;SDS011;13988;52.446;13.280;2023-11-21T04:19:08;8.27;;;5.35;;
26261;SDS011;13988;52.446;13.280;2023-11-21T04:21:35;8.02;;;4.45;;
26261;SDS011;13988;52.446;13.280;2023-11-21T04:24:04;10.63;;;5.55;;
26261;SDS011;13988;52.446;13.280;2023-11-21T04:26:31;8.65;;;4.55;;
26261;SDS011;13988;52.446;13.280;2023-11-21T04:28:56;7.55;;;4.82;;
26261;SDS011;13988;52.446;13.280;2023-11-21T04:31:22;8.00;;;4.78;;
26261;SDS011;13988;52.446;13.280;2023-11-21T04:33:48;8.25;;;5.45;;
26261;SDS011;13988;52.446;13.280;2023-11-21T04:36:14;12.88;;;6.93;;
26261;SDS011;13988;52.446;13.280;2023-11-21T04:38:39;10.65;;;5.38;;
26261;SDS011;13988;52.446;13.280;2023-11-21T04:41:05;12.32;;;5.60;;
26261;SDS011;13988;52.446;13.280;2023-11-21T04:43:31;12.05;;;4.95;;
26261;SDS011;13988;52.446;13.280;2023-11-21T04:45:57;7.57;;;4.03;;
26261;SDS011;13988;52.446;13.280;2023-11-21T04:48:22;9.27;;;5.25;;
26261;SDS011;13988;52.446;13.280;2023-11-21T04:50:48;9.85;;;4.90;;
26261;SDS011;13988;52.446;13.280;2023-11-21T04:53:14;7.00;;;4.53;;
26261;SDS011;13988;52.446;13.280;2023-11-21T04:55:42;7.07;;;4.65;;
26261;SDS011;13988;52.446;13.280;2023-11-21T04:58:08;10.30;;;5.80;;
26261;SDS011;13988;52.446;13.280;2023-11-21T05:00:34;8.13;;;5.35;;
26261;SDS011;13988;52.446;13.280;2023-11-21T05:03:01;13.68;;;6.13;;
26261;SDS011;13988;52.446;13.280;2023-11-21T05:05:28;9.15;;;5.22;;
26261;SDS011;13988;52.446;13.280;2023-11-21T05:07:55;11.25;;;4.90;;
26261;SDS011;13988;52.446;13.280;2023-11-21T05:10:20;12.88;;;5.30;;
26261;SDS011;13988;52.446;13.280;2023-11-21T05:12:47;8.48;;;5.22;;
26261;SDS011;13988;52.446;13.280;2023-11-21T05:15:15;10.98;;;4.47;;
26261;SDS011;13988;52.446;13.280;2023-11-21T05:17:42;9.57;;;4.93;;
26261;SDS011;13988;52.446;13.280;2023-11-21T05:20:12;11.27;;;4.70;;
26261;SDS011;13988;52.446;13.280;2023-11-21T05:22:39;9.05;;;4.78;;
26261;SDS011;13988;52.446;13.280;2023-11-21T05:25:05;7.85;;;4.07;;
26261;SDS011;13988;52.446;13.280;2023-11-21T05:27:35;9.95;;;4.80;;
26261;SDS011;13988;52.446;13.280;2023-11-21T05:30:02;6.03;;;3.88;;
26261;SDS011;13988;52.446;13.280;2023-11-21T05:32:30;7.03;;;4.82;;
26261;SDS011;13988;52.446;13.280;2023-11-21T05:34:56;6.45;;;3.20;;
26261;SDS011;13988;52.446;13.280;2023-11-21T05:37:22;6.40;;;3.22;;
26261;SDS011;13988;52.446;13.280;2023-11-21T05:39:48;8.45;;;4.47;;
26261;SDS011;13988;52.446;13.280;2023-11-21T05:42:14;3.30;;;1.98;;
26261;SDS011;13988;52.446;13.280;2023-11-21T05:44:43;7.78;;;4.03;;
26261;SDS011;13988;52.446;13.280;2023-11-21T05:47:08;8.27;;;2.97;;
26261;SDS011;13988;52.446;13.280;2023-11-21T05:49:35;5.30;;;3.53;;
26261;SDS011;13988;52.446;13.280;2023-11-21T05:52:01;10.23;;;3.53;;
26261;SDS011;13988;52.446;13.280;2023-11-21T05:54:26;6.97;;;4.03;;
26261;SDS011;13988;52.446;13.280;2023-11-21T05:56:52;6.28;;;3.78;;
26261;SDS011;13988;52.446;13.280;2023-11-21T05:59:17;5.05;;;3.47;;
26261;SDS011;13988;52.446;13.280;2023-11-21T06:01:43;7.47;;;4.22;;
26261;SDS011;13988;52.446;13.280;2023-11-21T06:04:10;11.35;;;5.25;;
26261;SDS011;13988;52.446;13.280;2023-11-21T06:06:37;9.00;;;4.50;;
26261;SDS011;13988;52.446;13.280;2023-11-21T06:09:03;9.10;;;4.60;;
26261;SDS011;13988;52.446;13.280;2023-11-21T06:11:30;12.18;;;4.70;;
26261;SDS011;13988;52.446;13.280;2023-11-21T06:13:56;11.57;;;5.60;;
26261;SDS011;13988;52.446;13.280;2023-11-21T06:16:23;7.75;;;4.47;;
26261;SDS011;13988;52.446;13.280;2023-11-21T06:18:49;8.65;;;3.83;;
26261;SDS011;13988;52.446;13.280;2023-11-21T06:21:14;7.75;;;4.10;;
26261;SDS011;13988;52.446;13.280;2023-11-21T06:23:42;8.23;;;4.53;;
26261;SDS011;13988;52.446;13.280;2023-11-21T06:26:07;5.78;;;3.33;;
26261;SDS011;13988;52.446;13.280;2023-11-21T06:28:34;4.80;;;3.72;;
26261;SDS011;13988;52.446;13.280;2023-11-21T06:31:01;7.20;;;3.13;;
26261;SDS011;13988;52.446;13.280;2023-11-21T06:33:33;11.15;;;3.70;;
26261;SDS011;13988;52.446;13.280;2023-11-21T06:35:59;5.47;;;3.10;;
26261;SDS011;13988;52.446;13.280;2023-11-21T06:38:28;6.40;;;3.10;;
26261;SDS011;13988;52.446;13.280;2023-11-21T06:40:55;5.78;;;3.38;;
26261;SDS011;13988;52.446;13.280;2023-11-21T06:43:21;5.43;;;3.13;;
26261;SDS011;13988;52.446;13.280;2023-11-21T06:45:47;3.83;;;2.90;;
26261;SDS011;13988;52.446;13.280;2023-11-21T06:48:13;6.13;;;3.10;;
26261;SDS011;13988;52.446;13.280;2023-11-21T06:50:39;5.57;;;3.30;;
26261;SDS011;13988;52.446;13.280;2023-11-21T06:53:04;5.47;;;3.10;;
26261;SDS011;13988;52.446;13.280;2023-11-21T06:55:32;6.82;;;3.95;;
26261;SDS011;13988;52.446;13.280;2023-11-21T06:57:58;4.82;;;3.00;;
26261;SDS011;13988;52.446;13.280;2023-11-21T07:00:25;6.35;;;3.28;;
26261;SDS011;13988;52.446;13.280;2023-11-21T07:02:53;6.70;;;3.33;;
26261;SDS011;13988;52.446;13.280;2023-11-21T07:05:20;4.38;;;3.15;;
26261;SDS011;13988;52.446;13.280;2023-11-21T07:07:47;4.65;;;3.10;;
26261;SDS011;13988;52.446;13.280;2023-11-21T07:10:13;10.18;;;3.95;;
26261;SDS011;13988;52.446;13.280;2023-11-21T07:12:39;5.93;;;2.35;;
26261;SDS011;13988;52.446;13.280;2023-11-21T07:15:05;6.20;;;3.33;;
26261;SDS011;13988;52.446;13.280;2023-11-21T07:17:34;7.65;;;3.58;;
26261;SDS011;13988;52.446;13.280;2023-11-21T07:20:00;5.55;;;3.35;;
26261;SDS011;13988;52.446;13.280;2023-11-21T07:22:26;4.97;;;3.10;;
26261;SDS011;13988;52.446;13.280;2023-11-21T07:24:52;4.43;;;2.90;;
26261;SDS011;13988;52.446;13.280;2023-11-21T07:27:18;7.50;;;3.22;;
26261;SDS011;13988;52.446;13.280;2023-11-21T07:29:44;4.78;;;2.97;;
26261;SDS011;13988;52.446;13.280;2023-11-21T07:32:10;4.65;;;2.78;;
26261;SDS011;13988;52.446;13.280;2023-11-21T07:34:36;5.53;;;2.67;;
26261;SDS011;13988;52.446;13.280;2023-11-21T07:37:02;4.20;;;3.33;;
26261;SDS011;13988;52.446;13.280;2023-11-21T07:39:28;3.53;;;2.42;;
26261;SDS011;13988;52.446;13.280;2023-11-21T07:41:55;7.28;;;3.63;;
26261;SDS011;13988;52.446;13.280;2023-11-21T07:44:21;4.40;;;2.53;;
26261;SDS011;13988;52.446;13.280;2023-11-21T07:46:46;4.22;;;2.53;;
26261;SDS011;13988;52.446;13.280;2023-11-21T07:49:14;5.35;;;2.63;;
26261;SDS011;13988;52.446;13.280;2023-11-21T07:51:42;7.13;;;3.33;;
26261;SDS011;13988;52.446;13.280;2023-11-21T07:54:08;4.82;;;3.35;;
26261;SDS011;13988;52.446;13.280;2023-11-21T07:56:35;5.25;;;3.20;;
26261;SDS011;13988;52.446;13.280;2023-11-21T07:59:00;4.50;;;2.80;;
26261;SDS011;13988;52.446;13.280;2023-11-21T08:01:26;4.00;;;3.10;;
26261;SDS011;13988;52.446;13.280;2023-11-21T08:03:53;3.15;;;2.45;;
26261;SDS011;13988;52.446;13.280;2023-11-21T08:06:24;5.70;;;3.20;;
26261;SDS011;13988;52.446;13.280;2023-11-21T08:08:50;5.13;;;3.28;;
26261;SDS011;13988;52.446;13.280;2023-11-21T08:11:16;3.10;;;2.30;;
26261;SDS011;13988;52.446;13.280;2023-11-21T08:13:42;5.28;;;2.53;;
26261;SDS011;13988;52.446;13.280;2023-11-21T08:16:07;6.07;;;2.90;;
26261;SDS011;13988;52.446;13.280;2023-11-21T08:18:33;3.88;;;2.72;;
26261;SDS011;13988;52.446;13.280;2023-11-21T08:20:59;6.95;;;2.78;;
26261;SDS011;13988;52.446;13.280;2023-11-21T08:23:25;5.53;;;2.95;;
26261;SDS011;13988;52.446;13.280;2023-11-21T08:25:51;3.53;;;2.60;;
26261;SDS011;13988;52.446;13.280;2023-11-21T08:28:18;3.83;;;2.45;;
26261;SDS011;13988;52.446;13.280;2023-11-21T08:30:44;5.20;;;3.17;;
26261;SDS011;13988;52.446;13.280;2023-11-21T08:33:10;6.13;;;3.38;;
26261;SDS011;13988;52.446;13.280;2023-11-21T08:35:38;2.83;;;1.92;;
26261;SDS011;13988;52.446;13.280;2023-11-21T08:38:04;6.75;;;2.20;;
26261;SDS011;13988;52.446;13.280;2023-11-21T08:40:30;1.55;;;1.33;;
26261;SDS011;13988;52.446;13.280;2023-11-21T08:42:56;6.00;;;3.17;;
26261;SDS011;13988;52.446;13.280;2023-11-21T08:45:23;6.85;;;3.63;;
26261;SDS011;13988;52.446;13.280;2023-11-21T08:47:51;8.15;;;2.65;;
26261;SDS011;13988;52.446;13.280;2023-11-21T08:50:16;4.72;;;3.22;;
26261;SDS011;13988;52.446;13.280;2023-11-21T08:52:43;4.32;;;2.33;;
26261;SDS011;13988;52.446;13.280;2023-11-21T08:55:10;5.32;;;3.15;;
26261;SDS011;13988;52.446;13.280;2023-11-21T08:57:37;6.97;;;3.15;;
26261;SDS011;13988;52.446;13.280;2023-11-21T09:00:05;3.15;;;2.03;;
26261;SDS011;13988;52.446;13.280;2023-11-21T09:02:38;1.40;;;1.00;;
26261;SDS011;13988;52.446;13.280;2023-11-21T09:05:07;3.58;;;2.63;;
26261;SDS011;13988;52.446;13.280;2023-11-21T09:07:34;5.38;;;2.30;;
26261;SDS011;13988;52.446;13.280;2023-11-21T09:10:00;5.28;;;2.83;;
26261;SDS011;13988;52.446;13.280;2023-11-21T09:12:27;2.53;;;2.10;;
26261;SDS011;13988;52.446;13.280;2023-11-21T09:14:52;7.25;;;3.30;;
26261;SDS011;13988;52.446;13.280;2023-11-21T09:17:18;3.13;;;1.60;;
26261;SDS011;13988;52.446;13.280;2023-11-21T09:19:44;5.00;;;2.28;;
26261;SDS011;13988;52.446;13.280;2023-11-21T09:22:16;4.65;;;2.42;;
26261;SDS011;13988;52.446;13.280;2023-11-21T09:24:42;4.88;;;1.88;;
26261;SDS011;13988;52.446;13.280;2023-11-21T09:27:08;5.43;;;2.83;;
26261;SDS011;13988;52.446;13.280;2023-11-21T09:29:34;5.18;;;2.13;;
26261;SDS011;13988;52.446;13.280;2023-11-21T09:32:00;3.55;;;2.15;;
26261;SDS011;13988;52.446;13.280;2023-11-21T09:34:26;3.83;;;2.17;;
26261;SDS011;13988;52.446;13.280;2023-11-21T09:36:52;3.47;;;2.35;;
26261;SDS011;13988;52.446;13.280;2023-11-21T09:39:18;4.13;;;2.63;;
26261;SDS011;13988;52.446;13.280;2023-11-21T09:41:46;9.40;;;3.65;;
26261;SDS011;13988;52.446;13.280;2023-11-21T09:44:20;3.50;;;1.95;;
26261;SDS011;13988;52.446;13.280;2023-11-21T09:46:59;4.28;;;2.35;;
26261;SDS011;13988;52.446;13.280;2023-11-21T09:49:24;3.50;;;2.55;;
26261;SDS011;13988;52.446;13.280;2023-11-21T09:51:53;6.85;;;2.33;;
26261;SDS011;13988;52.446;13.280;2023-11-21T09:54:21;4.35;;;2.08;;
26261;SDS011;13988;52.446;13.280;2023-11-21T09:56:46;4.72;;;2.75;;
26261;SDS011;13988;52.446;13.280;2023-11-21T09:59:13;4.13;;;2.38;;
26261;SDS011;13988;52.446;13.280;2023-11-21T10:01:40;4.15;;;2.28;;
26261;SDS011;13988;52.446;13.280;2023-11-21T10:04:07;6.00;;;3.03;;
26261;SDS011;13988;52.446;13.280;2023-11-21T10:06:39;4.18;;;2.60;;
26261;SDS011;13988;52.446;13.280;2023-11-21T10:09:15;7.10;;;3.17;;
26261;SDS011;13988;52.446;13.280;2023-11-21T10:11:41;11.15;;;3.78;;
26261;SDS011;13988;52.446;13.280;2023-11-21T10:14:10;11.05;;;3.25;;
26261;SDS011;13988;52.446;13.280;2023-11-21T10:16:37;8.68;;;3.03;;
26261;SDS011;13988;52.446;13.280;2023-11-21T10:19:04;4.78;;;2.53;;
26261;SDS011;13988;52.446;13.280;2023-11-21T10:21:34;5.82;;;2.58;;
26261;SDS011;13988;52.446;13.280;2023-11-21T10:24:00;6.38;;;2.97;;
26261;SDS011;13988;52.446;13.280;2023-11-21T10:26:26;6.70;;;3.35;;
26261;SDS011;13988;52.446;13.280;2023-11-21T10:29:00;10.55;;;3.17;;
26261;SDS011;13988;52.446;13.280;2023-11-21T10:31:28;14.73;;;4.03;;
26261;SDS011;13988;52.446;13.280;2023-11-21T10:34:19;11.70;;;4.40;;
26261;SDS011;13988;52.446;13.280;2023-11-21T10:36:45;25.15;;;4.32;;
26261;SDS011;13988;52.446;13.280;2023-11-21T10:39:16;7.05;;;3.65;;
26261;SDS011;13988;52.446;13.280;2023-11-21T10:41:49;14.48;;;5.60;;
26261;SDS011;13988;52.446;13.280;2023-11-21T10:44:19;9.75;;;3.45;;
26261;SDS011;13988;52.446;13.280;2023-11-21T10:46:51;10.40;;;3.50;;
26261;SDS011;13988;52.446;13.280;2023-11-21T10:49:26;10.48;;;4.00;;
26261;SDS011;13988;52.446;13.280;2023-11-21T10:51:55;8.82;;;3.92;;
26261;SDS011;13988;52.446;13.280;2023-11-21T10:54:21;7.85;;;3.92;;
26261;SDS011;13988;52.446;13.280;2023-11-21T10:56:53;8.77;;;3.50;;
26261;SDS011;13988;52.446;13.280;2023-11-21T10:59:23;10.18;;;4.55;;
26261;SDS011;13988;52.446;13.280;2023-11-21T11:01:52;4.78;;;2.45;;
26261;SDS011;13988;52.446;13.280;2023-11-21T11:04:19;5.32;;;3.22;;
26261;SDS011;13988;52.446;13.280;2023-11-21T11:07:08;11.63;;;4.78;;
26261;SDS011;13988;52.446;13.280;2023-11-21T11:09:34;6.15;;;3.00;;
26261;SDS011;13988;52.446;13.280;2023-11-21T11:12:03;5.57;;;3.70;;
26261;SDS011;13988;52.446;13.280;2023-11-21T11:14:29;9.23;;;4.68;;
26261;SDS011;13988;52.446;13.280;2023-11-21T11:16:57;7.57;;;3.42;;
26261;SDS011;13988;52.446;13.280;2023-11-21T11:19:24;7.40;;;3.78;;
26261;SDS011;13988;52.446;13.280;2023-11-21T11:21:53;10.48;;;3.30;;
26261;SDS011;13988;52.446;13.280;2023-11-21T11:27:29;5.32;;;3.50;;
26261;SDS011;13988;52.446;13.280;2023-11-21T11:33:00;6.70;;;3.35;;
26261;SDS011;13988;52.446;13.280;2023-11-21T11:38:12;3.90;;;3.30;;
26261;SDS011;13988;52.446;13.280;2023-11-21T11:40:39;3.22;;;2.58;;
26261;SDS011;13988;52.446;13.280;2023-11-21T11:43:11;2.28;;;1.80;;
26261;SDS011;13988;52.446;13.280;2023-11-21T11:45:37;3.45;;;1.70;;
26261;SDS011;13988;52.446;13.280;2023-11-21T11:48:07;5.72;;;1.25;;
26261;SDS011;13988;52.446;13.280;2023-11-21T11:50:33;3.78;;;2.22;;
26261;SDS011;13988;52.446;13.280;2023-11-21T11:53:32;2.15;;;1.55;;
26261;SDS011;13988;52.446;13.280;2023-11-21T11:55:58;2.78;;;1.40;;
26261;SDS011;13988;52.446;13.280;2023-11-21T11:58:53;3.00;;;1.73;;
26261;SDS011;13988;52.446;13.280;2023-11-21T12:01:20;2.70;;;1.35;;
26261;SDS011;13988;52.446;13.280;2023-11-21T12:04:29;3.03;;;2.15;;
26261;SDS011;13988;52.446;13.280;2023-11-21T12:06:56;2.65;;;2.13;;
26261;SDS011;13988;52.446;13.280;2023-11-21T12:09:25;1.90;;;1.70;;
26261;SDS011;13988;52.446;13.280;2023-11-21T12:11:51;2.13;;;1.52;;
26261;SDS011;13988;52.446;13.280;2023-11-21T12:14:18;4.30;;;1.80;;
26261;SDS011;13988;52.446;13.280;2023-11-21T12:16:44;2.95;;;1.85;;
26261;SDS011;13988;52.446;13.280;2023-11-21T12:19:10;1.70;;;1.42;;
26261;SDS011;13988;52.446;13.280;2023-11-21T12:21:38;3.50;;;2.25;;
26261;SDS011;13988;52.446;13.280;2023-11-21T12:24:06;3.88;;;2.53;;
26261;SDS011;13988;52.446;13.280;2023-11-21T12:26:34;3.85;;;2.45;;
26261;SDS011;13988;52.446;13.280;2023-11-21T12:29:01;7.35;;;4.10;;
26261;SDS011;13988;52.446;13.280;2023-11-21T12:31:29;3.42;;;2.45;;
26261;SDS011;13988;52.446;13.280;2023-11-21T12:33:55;2.15;;;2.03;;
26261;SDS011;13988;52.446;13.280;2023-11-21T12:36:22;3.63;;;2.42;;
26261;SDS011;13988;52.446;13.280;2023-11-21T12:38:48;5.45;;;1.88;;
26261;SDS011;13988;52.446;13.280;2023-11-21T12:41:15;3.30;;;2.05;;
26261;SDS011;13988;52.446;13.280;2023-11-21T12:43:42;2.42;;;2.10;;
26261;SDS011;13988;52.446;13.280;2023-11-21T12:46:09;2.75;;;0.88;;
26261;SDS011;13988;52.446;13.280;2023-11-21T12:48:39;3.97;;;2.22;;
26261;SDS011;13988;52.446;13.280;2023-11-21T12:51:09;2.83;;;2.13;;
26261;SDS011;13988;52.446;13.280;2023-11-21T12:53:37;6.28;;;2.75;;
26261;SDS011;13988;52.446;13.280;2023-11-21T12:56:06;3.20;;;2.38;;
26261;SDS011;13988;52.446;13.280;2023-11-21T12:58:35;2.28;;;1.83;;
26261;SDS011;13988;52.446;13.280;2023-11-21T13:01:02;3.05;;;1.83;;
26261;SDS011;13988;52.446;13.280;2023-11-21T13:03:29;1.27;;;1.00;;
26261;SDS011;13988;52.446;13.280;2023-11-21T13:05:55;2.33;;;1.80;;
26261;SDS011;13988;52.446;13.280;2023-11-21T13:08:22;4.25;;;3.25;;
26261;SDS011;13988;52.446;13.280;2023-11-21T13:10:53;2.65;;;1.70;;
26261;SDS011;13988;52.446;13.280;2023-11-21T13:13:21;1.17;;;0.90;;
26261;SDS011;13988;52.446;13.280;2023-11-21T13:15:49;4.38;;;2.20;;
26261;SDS011;13988;52.446;13.280;2023-11-21T13:18:23;5.40;;;2.20;;
26261;SDS011;13988;52.446;13.280;2023-11-21T13:20:52;3.72;;;2.40;;
26261;SDS011;13988;52.446;13.280;2023-11-21T13:23:22;5.03;;;2.78;;
26261;SDS011;13988;52.446;13.280;2023-11-21T13:25:49;5.15;;;3.17;;
26261;SDS011;13988;52.446;13.280;2023-11-21T13:28:15;5.45;;;2.97;;
26261;SDS011;13988;52.446;13.280;2023-11-21T13:30:43;4.70;;;2.20;;
26261;SDS011;13988;52.446;13.280;2023-11-21T13:33:09;5.25;;;2.88;;
26261;SDS011;13988;52.446;13.280;2023-11-21T13:35:43;2.50;;;2.20;;
26261;SDS011;13988;52.446;13.280;2023-11-21T13:38:13;3.92;;;2.90;;
26261;SDS011;13988;52.446;13.280;2023-11-21T13:40:42;8.20;;;3.28;;
26261;SDS011;13988;52.446;13.280;2023-11-21T13:43:14;9.23;;;3.13;;
26261;SDS011;13988;52.446;13.280;2023-11-21T13:45:44;11.13;;;3.78;;
26261;SDS011;13988;52.446;13.280;2023-11-21T13:48:11;5.80;;;3.55;;
26261;SDS011;13988;52.446;13.280;2023-11-21T13:50:42;13.75;;;4.00;;
26261;SDS011;13988;52.446;13.280;2023-11-21T13:53:34;5.45;;;3.55;;
26261;SDS011;13988;52.446;13.280;2023-11-21T13:56:02;8.43;;;3.85;;
26261;SDS011;13988;52.446;13.280;2023-11-21T13:58:29;8.43;;;4.55;;
26261;SDS011;13988;52.446;13.280;2023-11-21T14:01:21;7.82;;;4.05;;
26261;SDS011;13988;52.446;13.280;2023-11-21T14:06:42;11.30;;;4.50;;
26261;SDS011;13988;52.446;13.280;2023-11-21T14:09:14;9.00;;;3.83;;
26261;SDS011;13988;52.446;13.280;2023-11-21T14:11:47;9.13;;;5.15;;
26261;SDS011;13988;52.446;13.280;2023-11-21T14:14:14;12.73;;;5.28;;
26261;SDS011;13988;52.446;13.280;2023-11-21T14:16:40;9.55;;;5.75;;
26261;SDS011;13988;52.446;13.280;2023-11-21T14:19:07;14.38;;;5.63;;
26261;SDS011;13988;52.446;13.280;2023-11-21T14:21:40;15.38;;;7.13;;
26261;SDS011;13988;52.446;13.280;2023-11-21T14:24:10;16.67;;;6.78;;
26261;SDS011;13988;52.446;13.280;2023-11-21T14:26:38;14.13;;;6.28;;
26261;SDS011;13988;52.446;13.280;2023-11-21T14:29:08;14.90;;;8.35;;
26261;SDS011;13988;52.446;13.280;2023-11-21T14:31:34;12.73;;;6.07;;
26261;SDS011;13988;52.446;13.280;2023-11-21T14:34:00;17.05;;;9.02;;
26261;SDS011;13988;52.446;13.280;2023-11-21T14:36:31;15.45;;;7.57;;
26261;SDS011;13988;52.446;13.280;2023-11-21T14:38:56;13.38;;;6.05;;
26261;SDS011;13988;52.446;13.280;2023-11-21T14:41:22;14.02;;;6.10;;
26261;SDS011;13988;52.446;13.280;2023-11-21T14:43:52;8.55;;;5.82;;